Time;durP1;ratioP1;P1;durP2;ratioP2;P2;SDS_P1;SDS_P2;PMS_P1;PMS_P2;Temp;Humidity;BMP_temperature;BMP_pressure;BME280_temperature;BME280_humidity;BME280_pressure;Samples;Min_cycle;Max_cycle;Signal;HPM_P1;HPM_P2
2022/05/17 00:02:03;;;;;;;7.03;4.20;;;;;;;;;;7409138;19;20161;-89
2022/05/17 00:04:29;;;;;;;5.23;3.80;;;;;;;;;;7407391;19;20168;-87
2022/05/17 00:06:55;;;;;;;6.50;3.90;;;;;;;;;;7408860;19;20176;-88
2022/05/17 00:09:21;;;;;;;4.87;4.13;;;;;;;;;;7409915;19;20137;-89
2022/05/17 00:11:48;;;;;;;4.77;3.60;;;;;;;;;;7413305;19;20180;-87
2022/05/17 00:14:15;;;;;;;4.77;4.10;;;;;;;;;;7409742;19;20141;-85
2022/05/17 00:16:42;;;;;;;5.30;4.00;;;;;;;;;;7413212;19;20141;-89
2022/05/17 00:19:08;;;;;;;5.33;3.70;;;;;;;;;;7409857;19;20155;-85
2022/05/17 00:21:35;;;;;;;5.87;4.03;;;;;;;;;;7409305;19;20496;-85
2022/05/17 00:24:01;;;;;;;6.50;4.17;;;;;;;;;;7405414;19;20129;-87
2022/05/17 00:26:27;;;;;;;8.43;4.67;;;;;;;;;;7404467;19;20211;-91
2022/05/17 00:28:53;;;;;;;5.97;4.20;;;;;;;;;;7407373;19;20125;-89
2022/05/17 00:31:19;;;;;;;6.53;4.37;;;;;;;;;;7403481;19;20190;-85
2022/05/17 00:33:45;;;;;;;9.97;4.37;;;;;;;;;;7406026;19;20148;-87
2022/05/17 00:36:11;;;;;;;10.43;4.63;;;;;;;;;;7404085;19;20173;-88
2022/05/17 00:38:38;;;;;;;7.23;3.97;;;;;;;;;;7404463;19;20155;-88
2022/05/17 00:41:04;;;;;;;6.73;4.03;;;;;;;;;;7408180;19;20131;-88
2022/05/17 00:43:30;;;;;;;7.20;4.50;;;;;;;;;;7405335;19;20140;-86
2022/05/17 00:45:59;;;;;;;6.80;4.20;;;;;;;;;;7403988;19;20175;-85
2022/05/17 00:48:25;;;;;;;5.27;4.30;;;;;;;;;;7404493;19;20814;-89
2022/05/17 00:50:52;;;;;;;5.43;3.70;;;;;;;;;;7406826;19;20147;-88
2022/05/17 00:53:21;;;;;;;6.63;4.00;;;;;;;;;;7405324;19;20168;-85
2022/05/17 00:55:50;;;;;;;5.50;4.00;;;;;;;;;;7405289;19;20133;-87
2022/05/17 00:58:16;;;;;;;5.57;4.00;;;;;;;;;;7405586;19;20156;-88
2022/05/17 01:00:48;;;;;;;7.87;4.70;;;;;;;;;;7405636;19;20156;-87
2022/05/17 01:03:16;;;;;;;5.87;4.33;;;;;;;;;;7402538;19;21410;-89
2022/05/17 01:05:45;;;;;;;4.43;3.90;;;;;;;;;;7403472;19;20137;-87
2022/05/17 01:08:12;;;;;;;4.90;4.17;;;;;;;;;;7400960;19;20165;-90
2022/05/17 01:10:38;;;;;;;5.13;4.13;;;;;;;;;;7406380;19;20129;-85
2022/05/17 01:15:57;;;;;;;7.07;4.93;;;;;;;;;;7403836;19;20172;-89
2022/05/17 01:18:24;;;;;;;5.50;4.20;;;;;;;;;;7398135;19;20164;-87
2022/05/17 01:20:50;;;;;;;5.40;4.37;;;;;;;;;;7400950;19;20633;-88
2022/05/17 01:23:16;;;;;;;5.57;4.17;;;;;;;;;;7400888;19;20618;-87
2022/05/17 01:25:44;;;;;;;6.67;4.40;;;;;;;;;;7399136;19;20156;-85
2022/05/17 01:28:20;;;;;;;5.67;4.10;;;;;;;;;;7398843;19;20617;-86
2022/05/17 01:30:46;;;;;;;5.73;3.80;;;;;;;;;;7399377;19;20228;-85
2022/05/17 01:33:14;;;;;;;6.63;4.20;;;;;;;;;;7403695;19;20644;-88
2022/05/17 01:35:39;;;;;;;13.03;3.90;;;;;;;;;;7406508;19;20190;-88
2022/05/17 01:38:06;;;;;;;5.70;4.00;;;;;;;;;;7410231;19;20172;-85
2022/05/17 01:40:31;;;;;;;4.80;4.33;;;;;;;;;;7415195;19;20182;-86
2022/05/17 01:42:57;;;;;;;7.37;4.03;;;;;;;;;;7409147;19;20118;-84
2022/05/17 01:45:23;;;;;;;7.43;4.53;;;;;;;;;;7398623;19;20145;-85
2022/05/17 01:47:49;;;;;;;5.70;3.90;;;;;;;;;;7403267;19;20153;-85
2022/05/17 01:50:16;;;;;;;6.47;4.13;;;;;;;;;;7402294;19;20147;-85
2022/05/17 01:52:44;;;;;;;7.73;4.53;;;;;;;;;;7406444;19;20177;-87
2022/05/17 01:55:10;;;;;;;5.30;4.40;;;;;;;;;;7406411;19;20152;-87
2022/05/17 01:57:36;;;;;;;6.30;4.37;;;;;;;;;;7406878;19;20144;-86
2022/05/17 02:00:03;;;;;;;5.10;4.10;;;;;;;;;;7410105;19;20149;-89
2022/05/17 02:02:29;;;;;;;6.33;4.57;;;;;;;;;;7413063;19;20615;-89
2022/05/17 02:04:55;;;;;;;5.23;4.03;;;;;;;;;;7412418;19;20135;-87
2022/05/17 02:07:21;;;;;;;4.97;4.47;;;;;;;;;;7414385;19;20145;-88
2022/05/17 02:09:47;;;;;;;6.03;4.30;;;;;;;;;;7421375;19;20156;-86
2022/05/17 02:12:13;;;;;;;7.40;4.60;;;;;;;;;;7413975;19;20622;-87
2022/05/17 02:14:39;;;;;;;7.83;4.80;;;;;;;;;;7414147;19;20170;-91
2022/05/17 02:17:05;;;;;;;5.67;4.47;;;;;;;;;;7410182;19;20172;-88
2022/05/17 02:19:31;;;;;;;9.77;5.03;;;;;;;;;;7410304;19;20152;-87
2022/05/17 02:21:57;;;;;;;7.67;4.50;;;;;;;;;;7411691;19;20680;-86
2022/05/17 02:24:23;;;;;;;8.70;4.80;;;;;;;;;;7412884;19;20167;-88
2022/05/17 02:26:49;;;;;;;7.63;4.40;;;;;;;;;;7413937;19;20137;-87
2022/05/17 02:29:16;;;;;;;5.87;5.00;;;;;;;;;;7412694;19;20176;-86
2022/05/17 02:31:42;;;;;;;5.70;4.50;;;;;;;;;;7411367;19;20221;-86
2022/05/17 02:34:08;;;;;;;6.20;4.97;;;;;;;;;;7415866;19;20129;-85
2022/05/17 02:36:34;;;;;;;7.27;4.37;;;;;;;;;;7413851;19;20175;-88
2022/05/17 02:38:59;;;;;;;8.37;5.17;;;;;;;;;;7416456;19;20167;-87
2022/05/17 02:41:25;;;;;;;6.77;4.67;;;;;;;;;;7410191;19;20144;-85
2022/05/17 02:43:53;;;;;;;6.00;4.70;;;;;;;;;;7409853;19;20141;-86
2022/05/17 02:46:19;;;;;;;7.90;4.60;;;;;;;;;;7411258;19;20257;-88
2022/05/17 02:48:45;;;;;;;5.13;4.70;;;;;;;;;;7409928;19;20156;-88
2022/05/17 02:51:13;;;;;;;5.30;4.80;;;;;;;;;;7413462;19;20170;-88
2022/05/17 02:53:38;;;;;;;8.10;4.60;;;;;;;;;;7409828;19;20160;-89
2022/05/17 02:56:05;;;;;;;7.73;4.77;;;;;;;;;;7410654;19;20153;-89
2022/05/17 02:58:31;;;;;;;6.50;4.77;;;;;;;;;;7405862;19;20193;-89
2022/05/17 03:00:57;;;;;;;7.13;4.73;;;;;;;;;;7409559;19;20193;-88
2022/05/17 03:03:23;;;;;;;4.93;4.40;;;;;;;;;;7405866;19;20249;-89
2022/05/17 03:05:49;;;;;;;9.67;5.80;;;;;;;;;;7407728;19;20667;-90
2022/05/17 03:08:15;;;;;;;9.97;5.17;;;;;;;;;;7403396;19;20176;-89
2022/05/17 03:10:41;;;;;;;6.63;4.93;;;;;;;;;;7405232;19;20209;-87
2022/05/17 03:13:10;;;;;;;6.97;4.83;;;;;;;;;;7406214;19;20164;-88
2022/05/17 03:15:36;;;;;;;6.13;4.23;;;;;;;;;;7407795;19;20133;-88
2022/05/17 03:18:02;;;;;;;5.00;4.50;;;;;;;;;;7407092;19;20153;-89
2022/05/17 03:20:28;;;;;;;7.50;4.57;;;;;;;;;;7408551;19;20136;-87
2022/05/17 03:22:54;;;;;;;6.17;4.30;;;;;;;;;;7406890;19;20156;-89
2022/05/17 03:25:21;;;;;;;6.70;4.77;;;;;;;;;;7408097;19;20148;-88
2022/05/17 03:27:47;;;;;;;5.83;4.67;;;;;;;;;;7409148;19;20171;-88
2022/05/17 03:30:13;;;;;;;7.97;4.93;;;;;;;;;;7409724;19;20179;-87
2022/05/17 03:32:39;;;;;;;7.90;5.23;;;;;;;;;;7410713;19;20216;-87
2022/05/17 03:35:06;;;;;;;5.97;5.03;;;;;;;;;;7406921;19;20503;-88
2022/05/17 03:37:32;;;;;;;8.47;4.70;;;;;;;;;;7405814;19;20187;-88
2022/05/17 03:39:58;;;;;;;7.60;4.87;;;;;;;;;;7408219;19;20197;-88
2022/05/17 03:42:24;;;;;;;6.77;4.77;;;;;;;;;;7409791;19;21170;-89
2022/05/17 03:44:50;;;;;;;6.73;4.50;;;;;;;;;;7409576;19;20149;-89
2022/05/17 03:47:16;;;;;;;9.27;4.73;;;;;;;;;;7409096;19;20209;-89
2022/05/17 03:49:42;;;;;;;8.30;5.00;;;;;;;;;;7407268;19;20574;-85
2022/05/17 03:52:08;;;;;;;6.80;5.20;;;;;;;;;;7399609;19;20133;-89
2022/05/17 03:54:35;;;;;;;7.33;4.60;;;;;;;;;;7403970;19;20445;-87
2022/05/17 03:57:02;;;;;;;7.87;5.63;;;;;;;;;;7405179;19;20180;-88
2022/05/17 03:59:28;;;;;;;7.17;4.60;;;;;;;;;;7402629;19;20148;-88
2022/05/17 04:01:53;;;;;;;7.27;5.20;;;;;;;;;;7404874;19;20153;-89
2022/05/17 04:04:19;;;;;;;7.07;5.17;;;;;;;;;;7408650;19;20129;-88
2022/05/17 04:06:46;;;;;;;8.70;5.20;;;;;;;;;;7403406;19;20172;-87
2022/05/17 04:09:12;;;;;;;7.03;5.53;;;;;;;;;;7413169;19;20133;-86
2022/05/17 04:11:39;;;;;;;9.63;5.50;;;;;;;;;;7409621;19;20158;-87
2022/05/17 04:14:05;;;;;;;8.60;5.60;;;;;;;;;;7410099;19;20133;-87
2022/05/17 04:16:35;;;;;;;6.47;5.00;;;;;;;;;;7409611;19;20145;-87
2022/05/17 04:19:01;;;;;;;8.50;5.73;;;;;;;;;;7406990;19;20707;-87
2022/05/17 04:21:27;;;;;;;7.63;5.47;;;;;;;;;;7406190;19;20125;-87
2022/05/17 04:23:53;;;;;;;6.80;5.60;;;;;;;;;;7410631;19;20129;-86
2022/05/17 04:26:19;;;;;;;5.90;5.30;;;;;;;;;;7402931;19;20176;-88
2022/05/17 04:28:46;;;;;;;7.00;5.60;;;;;;;;;;7403245;19;20151;-89
2022/05/17 04:31:12;;;;;;;9.33;5.00;;;;;;;;;;7402805;19;20196;-88
2022/05/17 04:33:38;;;;;;;6.73;4.77;;;;;;;;;;7404825;19;20159;-88
2022/05/17 04:36:04;;;;;;;8.50;5.20;;;;;;;;;;7406459;19;20121;-90
2022/05/17 04:38:31;;;;;;;6.10;4.97;;;;;;;;;;7408577;19;20512;-88
2022/05/17 04:40:57;;;;;;;6.47;5.03;;;;;;;;;;7407688;19;20189;-87
2022/05/17 04:43:23;;;;;;;8.47;5.23;;;;;;;;;;7407827;19;20163;-88
2022/05/17 04:45:49;;;;;;;8.70;4.97;;;;;;;;;;7407820;19;20133;-88
2022/05/17 04:48:15;;;;;;;10.13;5.53;;;;;;;;;;7403381;19;20532;-88
2022/05/17 04:50:41;;;;;;;6.80;4.70;;;;;;;;;;7404572;19;20136;-88
2022/05/17 04:53:07;;;;;;;6.17;4.77;;;;;;;;;;7401648;19;20172;-90
2022/05/17 04:55:34;;;;;;;6.77;4.90;;;;;;;;;;7407369;19;20171;-88
2022/05/17 04:58:00;;;;;;;7.77;5.20;;;;;;;;;;7404083;19;20144;-87
2022/05/17 05:00:26;;;;;;;7.57;5.40;;;;;;;;;;7406371;19;20152;-89
2022/05/17 05:02:52;;;;;;;7.73;5.30;;;;;;;;;;7402990;19;20159;-88
2022/05/17 05:05:19;;;;;;;8.70;5.30;;;;;;;;;;7405417;19;20160;-89
2022/05/17 05:07:46;;;;;;;8.53;4.77;;;;;;;;;;7403979;19;20180;-86
2022/05/17 05:10:12;;;;;;;6.77;4.50;;;;;;;;;;7402335;19;20156;-90
2022/05/17 05:12:38;;;;;;;6.10;4.93;;;;;;;;;;7400319;19;20512;-88
2022/05/17 05:15:05;;;;;;;7.10;5.17;;;;;;;;;;7401790;19;20141;-89
2022/05/17 05:17:32;;;;;;;8.73;5.03;;;;;;;;;;7399257;19;20164;-89
2022/05/17 05:19:59;;;;;;;8.70;4.97;;;;;;;;;;7400928;19;20631;-88
2022/05/17 05:22:25;;;;;;;5.67;5.03;;;;;;;;;;7396405;19;20145;-88
2022/05/17 05:24:52;;;;;;;5.67;5.00;;;;;;;;;;7398430;19;20639;-92
2022/05/17 05:27:18;;;;;;;6.57;4.90;;;;;;;;;;7388855;19;20172;-88
2022/05/17 05:29:44;;;;;;;7.10;5.00;;;;;;;;;;7398165;19;20621;-88
2022/05/17 05:32:10;;;;;;;8.80;5.30;;;;;;;;;;7394500;19;20155;-89
2022/05/17 05:34:36;;;;;;;8.27;4.63;;;;;;;;;;7393852;19;20144;-90
2022/05/17 05:37:02;;;;;;;6.70;4.83;;;;;;;;;;7392220;19;20641;-87
2022/05/17 05:39:28;;;;;;;7.87;5.23;;;;;;;;;;7399793;19;20232;-90
2022/05/17 05:41:54;;;;;;;8.23;5.27;;;;;;;;;;7393908;19;20160;-90
2022/05/17 05:44:21;;;;;;;11.73;5.70;;;;;;;;;;7393407;19;20159;-89
2022/05/17 05:46:47;;;;;;;6.80;6.00;;;;;;;;;;7393933;19;20195;-88
2022/05/17 05:49:13;;;;;;;5.83;4.87;;;;;;;;;;7397842;19;20140;-85
2022/05/17 05:51:40;;;;;;;21.77;5.80;;;;;;;;;;7406567;19;20148;-91
2022/05/17 05:54:06;;;;;;;5.93;5.17;;;;;;;;;;7406910;19;20229;-87
2022/05/17 05:56:32;;;;;;;10.87;4.73;;;;;;;;;;7399561;19;20141;-88
2022/05/17 05:58:58;;;;;;;7.73;5.23;;;;;;;;;;7396987;19;20133;-84
2022/05/17 06:01:26;;;;;;;7.00;4.90;;;;;;;;;;7405257;19;20160;-85
2022/05/17 06:03:52;;;;;;;8.50;5.67;;;;;;;;;;7402994;19;20136;-85
2022/05/17 06:06:19;;;;;;;11.00;5.03;;;;;;;;;;7401577;19;20192;-86
2022/05/17 06:08:45;;;;;;;7.30;5.10;;;;;;;;;;7395483;19;20149;-90
2022/05/17 06:11:11;;;;;;;8.63;5.10;;;;;;;;;;7392561;19;20157;-85
2022/05/17 06:13:37;;;;;;;6.30;4.97;;;;;;;;;;7396169;19;20121;-86
